createdAt,value
2022-12-29T00:00:19.127Z,51.03
2022-12-29T00:02:46.326Z,50.20
2022-12-29T00:05:13.592Z,51.25
2022-12-29T00:07:40.681Z,52.88
2022-12-29T00:10:08.523Z,49.25
2022-12-29T00:12:54.489Z,49.05
2022-12-29T00:15:39.914Z,51.05
2022-12-29T00:18:08.531Z,45.88
2022-12-29T00:20:55.436Z,45.92
2022-12-29T00:23:40.945Z,50.88
2022-12-29T00:26:36.062Z,50.55
2022-12-29T00:29:22.056Z,49.47
2022-12-29T00:32:08.274Z,52.28
2022-12-29T00:34:54.529Z,49.55
2022-12-29T00:37:41.685Z,50.65
2022-12-29T00:40:27.873Z,50.17
2022-12-29T00:43:13.267Z,48.97
2022-12-29T00:45:42.899Z,50.00
2022-12-29T00:48:10.036Z,50.22
2022-12-29T00:50:37.260Z,49.75
2022-12-29T00:53:04.444Z,46.95
2022-12-29T00:55:31.682Z,49.35
2022-12-29T00:57:59.313Z,53.80
2022-12-29T01:00:26.533Z,50.50
2022-12-29T01:02:53.811Z,52.00
2022-12-29T01:05:20.996Z,52.65
2022-12-29T01:07:48.149Z,58.30
2022-12-29T01:10:16.105Z,54.17
2022-12-29T01:12:44.704Z,50.30
2022-12-29T01:15:14.961Z,49.35
2022-12-29T01:17:42.818Z,50.58
2022-12-29T01:20:11.645Z,50.80
2022-12-29T01:22:38.996Z,47.38
2022-12-29T01:25:07.312Z,45.67
2022-12-29T01:27:35.522Z,50.45
2022-12-29T01:30:02.837Z,48.25
2022-12-29T01:32:29.908Z,50.25
2022-12-29T01:34:56.984Z,50.58
2022-12-29T01:37:24.114Z,46.90
2022-12-29T01:39:51.225Z,48.90
2022-12-29T01:42:23.419Z,52.97
2022-12-29T01:45:03.642Z,49.58
2022-12-29T01:47:44.737Z,50.85
2022-12-29T01:50:26.584Z,52.88
2022-12-29T01:53:08.788Z,49.25
2022-12-29T01:55:42.148Z,47.63
2022-12-29T01:58:12.119Z,51.95
2022-12-29T02:00:39.288Z,49.08
2022-12-29T02:03:07.821Z,50.25
2022-12-29T02:05:51.392Z,50.10
2022-12-29T02:08:19.352Z,48.75
2022-12-29T02:10:46.477Z,49.42
2022-12-29T02:13:17.536Z,48.75
2022-12-29T02:16:19.067Z,50.70
2022-12-29T02:18:55.543Z,46.15
2022-12-29T02:22:00.876Z,47.78
2022-12-29T02:25:04.673Z,52.30
2022-12-29T02:27:54.852Z,48.03
2022-12-29T02:30:51.548Z,48.33
2022-12-29T02:33:31.360Z,47.57
2022-12-29T02:36:22.697Z,50.40
2022-12-29T02:39:19.935Z,51.60
2022-12-29T02:42:06.416Z,46.72
2022-12-29T02:45:05.120Z,48.58
2022-12-29T02:47:35.193Z,50.17
2022-12-29T02:50:39.353Z,45.83
2022-12-29T02:53:10.888Z,50.42
2022-12-29T02:55:38.043Z,51.47
2022-12-29T02:58:17.029Z,48.63
2022-12-29T03:01:21.678Z,46.33
2022-12-29T03:06:53.084Z,48.53
2022-12-29T03:12:55.460Z,44.72
2022-12-29T03:15:53.504Z,49.80
2022-12-29T03:18:32.195Z,48.75
2022-12-29T03:21:07.575Z,47.25
2022-12-29T03:23:37.448Z,50.22
2022-12-29T03:26:09.674Z,51.83
2022-12-29T03:28:41.928Z,52.00
2022-12-29T03:31:11.113Z,48.65
2022-12-29T03:33:42.616Z,47.08
2022-12-29T03:36:16.911Z,48.58
2022-12-29T03:38:57.055Z,47.45
2022-12-29T03:41:29.763Z,48.25
2022-12-29T03:43:58.819Z,47.25
2022-12-29T03:46:26.141Z,50.70
2022-12-29T03:48:53.411Z,48.35
2022-12-29T03:51:20.505Z,48.58
2022-12-29T03:53:47.841Z,51.33
2022-12-29T03:56:15.338Z,52.55
2022-12-29T03:58:42.824Z,49.38
2022-12-29T04:01:14.696Z,48.13
2022-12-29T04:03:42.060Z,48.10
2022-12-29T04:06:09.219Z,49.75
2022-12-29T04:08:42.078Z,46.93
2022-12-29T04:11:09.158Z,47.67
2022-12-29T04:13:36.597Z,47.50
2022-12-29T04:16:03.983Z,51.22
2022-12-29T04:18:31.110Z,52.05
2022-12-29T04:21:01.181Z,48.38
2022-12-29T04:23:31.054Z,45.88
2022-12-29T04:25:58.590Z,47.85
2022-12-29T04:28:27.185Z,47.42
2022-12-29T04:31:05.773Z,46.15
2022-12-29T04:33:39.251Z,43.63
2022-12-29T04:36:07.236Z,46.80
2022-12-29T04:38:36.092Z,46.17
2022-12-29T04:41:05.216Z,46.38
2022-12-29T04:43:33.642Z,47.13
2022-12-29T04:46:10.248Z,47.25
2022-12-29T04:49:09.543Z,49.83
2022-12-29T04:52:00.244Z,45.17
2022-12-29T04:54:27.681Z,47.40
2022-12-29T04:57:02.195Z,49.67
2022-12-29T04:59:30.871Z,46.58
2022-12-29T05:02:00.391Z,49.17
2022-12-29T05:04:27.802Z,46.67
2022-12-29T05:06:54.929Z,49.75
2022-12-29T05:09:22.130Z,46.95
2022-12-29T05:11:49.255Z,50.53
2022-12-29T05:14:16.436Z,48.10
2022-12-29T05:16:46.016Z,46.13
2022-12-29T05:19:13.135Z,45.83
2022-12-29T05:21:40.324Z,48.47
2022-12-29T05:24:08.554Z,48.03
2022-12-29T05:26:36.565Z,47.03
2022-12-29T05:29:29.608Z,45.43
2022-12-29T05:31:56.990Z,48.75
2022-12-29T05:34:24.156Z,46.10
2022-12-29T05:36:52.355Z,47.45
2022-12-29T05:39:19.527Z,48.95
2022-12-29T05:41:51.654Z,45.08
2022-12-29T05:44:29.137Z,46.83
2022-12-29T05:47:14.893Z,49.50
2022-12-29T05:49:48.464Z,47.13
2022-12-29T05:52:30.580Z,47.20
2022-12-29T05:54:58.023Z,47.25
2022-12-29T05:57:26.884Z,45.20
2022-12-29T06:00:08.053Z,46.97
2022-12-29T06:02:42.024Z,47.28
2022-12-29T06:05:09.677Z,47.67
2022-12-29T06:07:38.263Z,48.85
2022-12-29T06:10:06.858Z,51.17
2022-12-29T06:12:42.269Z,50.03
2022-12-29T06:15:09.871Z,45.22
2022-12-29T06:17:40.588Z,49.30
2022-12-29T06:20:09.092Z,47.42
2022-12-29T06:22:36.934Z,48.80
2022-12-29T06:25:05.413Z,45.97
2022-12-29T06:27:34.487Z,45.80
2022-12-29T06:30:01.722Z,48.38
2022-12-29T06:32:29.519Z,46.53
2022-12-29T06:35:02.201Z,45.55
2022-12-29T06:37:29.406Z,49.00
2022-12-29T06:39:57.065Z,49.53
2022-12-29T06:42:29.612Z,47.90
2022-12-29T06:45:30.756Z,50.35
2022-12-29T06:47:57.885Z,47.60
2022-12-29T06:50:25.195Z,47.53
2022-12-29T06:52:52.325Z,47.67
2022-12-29T06:55:19.435Z,45.38
2022-12-29T06:57:46.527Z,47.90
2022-12-29T07:00:16.961Z,45.97
2022-12-29T07:02:48.076Z,46.17
2022-12-29T07:05:15.195Z,44.25
2022-12-29T07:07:42.283Z,45.50
2022-12-29T07:10:09.495Z,45.15
2022-12-29T07:12:36.623Z,45.10
2022-12-29T07:15:04.002Z,45.05
2022-12-29T07:17:31.103Z,45.40
2022-12-29T07:19:58.173Z,45.03
2022-12-29T07:22:25.295Z,42.42
2022-12-29T07:24:52.445Z,43.75
2022-12-29T07:27:19.577Z,44.08
2022-12-29T07:29:46.863Z,47.13
2022-12-29T07:32:14.063Z,47.92
2022-12-29T07:34:41.264Z,47.75
2022-12-29T07:37:08.413Z,45.78
2022-12-29T07:39:35.809Z,47.97
2022-12-29T07:42:05.297Z,43.38
2022-12-29T07:44:39.987Z,44.80
2022-12-29T07:47:17.026Z,46.47
2022-12-29T07:49:44.160Z,48.45
2022-12-29T07:52:11.358Z,48.70
2022-12-29T07:54:38.455Z,47.75
2022-12-29T07:57:06.808Z,46.00
2022-12-29T07:59:34.018Z,46.60
2022-12-29T08:02:01.656Z,47.92
2022-12-29T08:04:28.944Z,48.30
2022-12-29T08:06:56.056Z,46.72
2022-12-29T08:09:24.446Z,46.63
2022-12-29T08:11:52.042Z,46.03
2022-12-29T08:14:19.337Z,44.33
2022-12-29T08:16:47.089Z,44.35
2022-12-29T08:19:14.539Z,42.83
2022-12-29T08:21:42.339Z,46.92
2022-12-29T08:24:10.155Z,41.70
2022-12-29T08:26:37.326Z,44.28
2022-12-29T08:29:04.449Z,45.33
2022-12-29T08:31:31.610Z,42.97
2022-12-29T08:33:58.844Z,45.28
2022-12-29T08:36:25.964Z,44.40
2022-12-29T08:38:53.456Z,44.20
2022-12-29T08:41:20.537Z,43.42
2022-12-29T08:43:48.899Z,45.03
2022-12-29T08:46:17.345Z,46.40
2022-12-29T08:48:44.571Z,43.47
2022-12-29T08:51:11.863Z,44.25
2022-12-29T08:53:39.059Z,59.53
2022-12-29T08:56:06.704Z,53.75
2022-12-29T08:58:43.802Z,48.97
2022-12-29T09:01:11.552Z,43.50
2022-12-29T09:04:12.688Z,46.25
2022-12-29T09:06:25.934Z,45.97
2022-12-29T09:08:54.876Z,45.00
2022-12-29T09:11:24.293Z,45.90
2022-12-29T09:13:52.062Z,44.00
2022-12-29T09:16:21.083Z,44.47
2022-12-29T09:18:48.307Z,44.67
2022-12-29T09:21:15.402Z,45.88
2022-12-29T09:23:42.548Z,47.58
2022-12-29T09:26:10.093Z,46.25
2022-12-29T09:28:37.726Z,42.67
2022-12-29T09:31:05.226Z,43.28
2022-12-29T09:33:34.477Z,46.22
2022-12-29T09:36:01.663Z,44.03
2022-12-29T09:38:29.534Z,43.97
2022-12-29T09:41:12.233Z,47.53
2022-12-29T09:43:54.404Z,45.70
2022-12-29T09:46:31.166Z,43.45
2022-12-29T09:49:09.532Z,41.05
2022-12-29T09:51:40.661Z,40.65
2022-12-29T09:54:35.406Z,38.40
2022-12-29T09:57:02.507Z,40.30
2022-12-29T09:59:42.073Z,45.95
2022-12-29T10:02:31.277Z,42.13
2022-12-29T10:04:59.023Z,43.00
2022-12-29T10:07:34.436Z,40.70
2022-12-29T10:10:13.288Z,37.90
2022-12-29T10:13:05.348Z,39.13
2022-12-29T10:15:41.209Z,35.20
2022-12-29T10:18:14.349Z,36.55
2022-12-29T10:20:44.499Z,37.88
2022-12-29T10:23:20.384Z,37.63
2022-12-29T10:25:47.924Z,38.10
2022-12-29T10:28:37.436Z,36.10
2022-12-29T10:31:10.271Z,37.58
2022-12-29T10:33:41.574Z,36.73
2022-12-29T10:36:35.848Z,34.70
2022-12-29T10:42:06.382Z,34.20
2022-12-29T10:44:35.634Z,33.10
2022-12-29T10:47:17.551Z,34.08
2022-12-29T10:49:48.414Z,36.50
2022-12-29T10:52:18.408Z,33.65
2022-12-29T10:54:54.467Z,35.55
2022-12-29T10:57:28.966Z,36.08
2022-12-29T10:59:56.348Z,33.97
2022-12-29T11:02:32.291Z,35.78
2022-12-29T11:05:11.449Z,34.78
2022-12-29T11:07:39.357Z,36.60
2022-12-29T11:10:32.424Z,45.72
2022-12-29T11:13:02.614Z,36.00
2022-12-29T11:15:43.376Z,32.03
2022-12-29T11:18:27.221Z,30.42
2022-12-29T11:21:01.263Z,29.65
2022-12-29T11:23:59.178Z,28.92
2022-12-29T11:26:33.897Z,27.75
2022-12-29T11:29:17.783Z,28.83
2022-12-29T11:31:50.590Z,29.13
2022-12-29T11:34:22.195Z,29.27
2022-12-29T11:36:51.605Z,26.52
2022-12-29T11:39:41.939Z,26.55
2022-12-29T11:42:16.749Z,28.17
2022-12-29T11:44:46.815Z,29.42
2022-12-29T11:47:33.595Z,28.90
2022-12-29T11:50:07.895Z,27.33
2022-12-29T11:52:40.404Z,26.10
2022-12-29T11:55:20.082Z,27.48
2022-12-29T11:57:48.259Z,28.23
2022-12-29T12:00:18.391Z,30.63
2022-12-29T12:02:56.261Z,27.65
2022-12-29T12:05:38.692Z,26.95
2022-12-29T12:08:21.342Z,27.52
2022-12-29T12:10:51.334Z,27.23
2022-12-29T12:13:25.730Z,29.35
2022-12-29T12:16:05.380Z,27.05
2022-12-29T12:18:43.738Z,28.95
2022-12-29T12:21:22.843Z,28.05
2022-12-29T12:24:19.121Z,27.50
2022-12-29T12:27:01.807Z,25.85
2022-12-29T12:29:43.333Z,24.88
2022-12-29T12:32:47.419Z,26.38
2022-12-29T12:35:22.165Z,26.00
2022-12-29T12:38:04.589Z,24.77
2022-12-29T12:41:00.859Z,25.90
2022-12-29T12:43:49.693Z,25.58
2022-12-29T12:46:53.780Z,24.80
2022-12-29T12:49:42.531Z,23.58
2022-12-29T12:52:22.910Z,27.90
2022-12-29T12:55:05.281Z,25.92
2022-12-29T12:57:53.791Z,25.15
2022-12-29T13:00:24.152Z,23.50
2022-12-29T13:02:57.893Z,25.45
2022-12-29T13:05:43.795Z,22.02
2022-12-29T13:08:43.242Z,22.77
2022-12-29T13:11:39.917Z,25.75
2022-12-29T13:14:21.557Z,23.65
2022-12-29T13:17:16.256Z,22.77
2022-12-29T13:19:55.943Z,22.95
2022-12-29T13:22:42.059Z,23.48
2022-12-29T13:25:27.694Z,22.48
2022-12-29T13:28:26.369Z,22.15
2022-12-29T13:31:19.151Z,24.15
2022-12-29T13:34:08.940Z,21.55
2022-12-29T13:36:45.945Z,24.60
2022-12-29T13:39:33.994Z,22.63
2022-12-29T13:42:03.582Z,24.00
2022-12-29T13:44:39.652Z,23.30
2022-12-29T13:47:30.489Z,24.42
2022-12-29T13:50:01.978Z,24.38
2022-12-29T13:52:40.114Z,22.48
2022-12-29T13:55:32.377Z,24.02
2022-12-29T13:58:20.787Z,23.52
2022-12-29T14:01:23.504Z,23.85
2022-12-29T14:03:53.618Z,24.33
2022-12-29T14:06:26.568Z,26.17
2022-12-29T14:09:00.431Z,24.10
2022-12-29T14:11:36.716Z,22.45
2022-12-29T14:14:21.411Z,22.70
2022-12-29T14:16:49.228Z,23.15
2022-12-29T14:19:29.006Z,24.65
2022-12-29T14:22:03.206Z,23.85
2022-12-29T14:24:36.166Z,25.40
2022-12-29T14:27:23.668Z,23.25
2022-12-29T14:29:52.082Z,22.42
2022-12-29T14:32:22.159Z,23.45
2022-12-29T14:34:52.450Z,23.90
2022-12-29T14:37:30.053Z,23.25
2022-12-29T14:40:26.043Z,22.38
2022-12-29T14:42:56.244Z,23.48
2022-12-29T14:45:30.561Z,22.27
2022-12-29T14:47:57.943Z,24.38
2022-12-29T14:50:38.063Z,23.10
2022-12-29T14:53:07.565Z,23.73
2022-12-29T14:55:44.001Z,26.27
2022-12-29T14:58:29.038Z,24.73
2022-12-29T15:00:56.935Z,24.70
2022-12-29T15:03:29.545Z,23.92
2022-12-29T15:06:02.544Z,24.27
2022-12-29T15:08:38.816Z,24.27
2022-12-29T15:11:14.540Z,25.10
2022-12-29T15:13:44.407Z,25.30
2022-12-29T15:16:30.869Z,25.13
2022-12-29T15:18:59.134Z,26.38
2022-12-29T15:21:36.745Z,25.15
2022-12-29T15:24:04.984Z,22.27
2022-12-29T15:26:40.096Z,27.75
2022-12-29T15:29:36.522Z,27.02
2022-12-29T15:32:25.915Z,25.35
2022-12-29T15:34:55.939Z,26.20
2022-12-29T15:37:24.909Z,27.40
2022-12-29T15:39:53.466Z,24.98
2022-12-29T15:42:52.344Z,26.77
2022-12-29T15:45:19.634Z,28.48
2022-12-29T15:47:50.251Z,26.58
2022-12-29T15:50:35.163Z,27.45
2022-12-29T15:53:03.430Z,29.02
2022-12-29T15:55:36.338Z,28.23
2022-12-29T15:58:18.444Z,28.85
2022-12-29T16:00:57.947Z,27.40
2022-12-29T16:03:33.475Z,29.15
2022-12-29T16:06:26.008Z,28.98
2022-12-29T16:09:00.165Z,30.73
2022-12-29T16:11:35.567Z,28.08
2022-12-29T16:14:07.680Z,29.05
2022-12-29T16:16:39.813Z,30.30
2022-12-29T16:19:33.611Z,30.00
2022-12-29T16:22:03.527Z,30.15
2022-12-29T16:24:33.924Z,30.63
2022-12-29T16:27:23.999Z,31.77
2022-12-29T16:29:55.681Z,31.52
2022-12-29T16:32:26.794Z,28.85
2022-12-29T16:35:24.304Z,29.00
2022-12-29T16:38:22.369Z,29.67
2022-12-29T16:41:03.211Z,29.20
2022-12-29T16:43:34.108Z,31.13
2022-12-29T16:46:01.147Z,29.90
2022-12-29T16:48:48.850Z,27.75
2022-12-29T16:51:29.130Z,31.38
2022-12-29T16:53:56.743Z,28.55
2022-12-29T16:56:27.997Z,29.45
2022-12-29T16:59:17.856Z,28.45
2022-12-29T17:01:45.276Z,26.95
2022-12-29T17:04:14.539Z,30.70
2022-12-29T17:06:41.974Z,31.85
2022-12-29T17:09:28.768Z,31.27
2022-12-29T17:12:05.244Z,28.33
2022-12-29T17:14:53.750Z,27.75
2022-12-29T17:17:41.183Z,29.25
2022-12-29T17:20:17.547Z,29.20
2022-12-29T17:22:45.409Z,32.20
2022-12-29T17:25:14.790Z,33.63
2022-12-29T17:27:46.089Z,33.60
2022-12-29T17:30:16.379Z,32.42
2022-12-29T17:32:47.052Z,29.92
2022-12-29T17:35:18.774Z,30.05
2022-12-29T17:37:46.353Z,28.98
2022-12-29T17:40:19.650Z,28.52
2022-12-29T17:42:49.774Z,28.63
2022-12-29T17:45:20.606Z,28.55
2022-12-29T17:47:48.338Z,26.88
2022-12-29T17:50:25.943Z,29.65
2022-12-29T17:53:01.095Z,28.90
2022-12-29T17:55:36.742Z,28.90
2022-12-29T17:58:20.055Z,27.00
2022-12-29T18:00:49.540Z,28.75
2022-12-29T18:03:37.407Z,28.88
2022-12-29T18:06:08.146Z,27.75
2022-12-29T18:08:36.577Z,29.15
2022-12-29T18:11:04.343Z,30.55
2022-12-29T18:13:45.549Z,29.58
2022-12-29T18:16:14.299Z,28.42
2022-12-29T18:18:41.541Z,29.27
2022-12-29T18:21:17.778Z,30.52
2022-12-29T18:23:45.115Z,28.00
2022-12-29T18:26:23.923Z,26.92
2022-12-29T18:28:55.258Z,29.67
2022-12-29T18:31:28.247Z,32.35
2022-12-29T18:33:58.161Z,29.10
2022-12-29T18:36:25.763Z,30.15
2022-12-29T18:38:54.571Z,31.67
2022-12-29T18:41:26.315Z,28.67
2022-12-29T18:43:53.387Z,29.13
2022-12-29T18:46:23.431Z,31.02
2022-12-29T18:48:52.354Z,29.67
2022-12-29T18:51:22.253Z,28.25
2022-12-29T18:53:49.435Z,27.70
2022-12-29T18:56:16.615Z,27.95
2022-12-29T18:58:43.707Z,27.77
2022-12-29T19:01:20.730Z,27.42
2022-12-29T19:03:48.626Z,29.17
2022-12-29T19:06:15.834Z,29.60
2022-12-29T19:08:43.407Z,30.85
2022-12-29T19:11:10.621Z,30.08
2022-12-29T19:13:38.474Z,29.08
2022-12-29T19:16:08.641Z,29.42
2022-12-29T19:18:45.389Z,29.27
2022-12-29T19:21:14.872Z,32.83
2022-12-29T19:23:42.141Z,32.60
2022-12-29T19:26:27.677Z,32.50
2022-12-29T19:28:54.827Z,34.17
2022-12-29T19:31:22.109Z,37.60
2022-12-29T19:33:49.423Z,36.05
2022-12-29T19:36:16.966Z,35.45
2022-12-29T19:38:45.204Z,44.53
2022-12-29T19:41:13.430Z,47.72
2022-12-29T19:43:40.746Z,41.78
2022-12-29T19:46:09.770Z,42.58
2022-12-29T19:48:37.179Z,50.35
2022-12-29T19:51:09.079Z,65.80
2022-12-29T19:53:36.987Z,57.88
2022-12-29T19:56:06.710Z,49.78
2022-12-29T19:58:35.424Z,41.47
2022-12-29T20:01:14.673Z,37.45
2022-12-29T20:03:42.300Z,35.97
2022-12-29T20:06:10.776Z,41.42
2022-12-29T20:08:38.687Z,44.00
2022-12-29T20:11:07.506Z,41.38
2022-12-29T20:13:35.807Z,36.53
2022-12-29T20:16:07.560Z,40.08
2022-12-29T20:18:35.657Z,37.50
2022-12-29T20:21:02.730Z,35.38
2022-12-29T20:23:31.454Z,36.65
2022-12-29T20:26:00.289Z,36.58
2022-12-29T20:28:28.916Z,50.45
2022-12-29T20:30:59.659Z,39.40
2022-12-29T20:33:28.669Z,36.35
2022-12-29T20:36:04.668Z,39.00
2022-12-29T20:38:31.835Z,36.95
2022-12-29T20:40:59.308Z,38.22
2022-12-29T20:43:26.584Z,34.90
2022-12-29T20:45:53.761Z,36.55
2022-12-29T20:48:20.930Z,37.00
2022-12-29T20:50:48.041Z,38.53
2022-12-29T20:53:15.267Z,35.95
2022-12-29T20:55:42.469Z,34.38
2022-12-29T20:58:25.620Z,36.55
2022-12-29T21:00:54.182Z,38.85
2022-12-29T21:03:22.365Z,35.72
2022-12-29T21:05:49.551Z,35.00
2022-12-29T21:08:16.811Z,37.08
2022-12-29T21:10:47.447Z,37.63
2022-12-29T21:13:14.772Z,35.20
2022-12-29T21:15:42.573Z,36.40
2022-12-29T21:18:09.708Z,37.47
2022-12-29T21:20:36.805Z,39.08
2022-12-29T21:23:04.121Z,36.20
2022-12-29T21:25:37.270Z,36.75
2022-12-29T21:28:09.522Z,36.53
2022-12-29T21:30:36.792Z,39.88
2022-12-29T21:33:05.009Z,39.80
2022-12-29T21:35:36.327Z,38.33
2022-12-29T21:38:03.417Z,39.75
2022-12-29T21:40:30.860Z,38.72
2022-12-29T21:42:57.972Z,37.60
2022-12-29T21:45:25.085Z,38.00
2022-12-29T21:48:16.101Z,36.60
2022-12-29T21:51:03.875Z,38.20
2022-12-29T21:53:37.947Z,37.10
2022-12-29T21:56:06.259Z,37.42
2022-12-29T21:58:52.333Z,39.03
2022-12-29T22:01:37.810Z,37.05
2022-12-29T22:04:23.943Z,39.50
2022-12-29T22:07:10.577Z,37.97
2022-12-29T22:09:56.159Z,37.17
2022-12-29T22:12:41.470Z,38.72
2022-12-29T22:15:08.850Z,41.08
2022-12-29T22:17:37.862Z,41.75
2022-12-29T22:20:06.706Z,41.00
2022-12-29T22:22:33.782Z,40.53
2022-12-29T22:25:00.960Z,39.72
2022-12-29T22:27:28.291Z,40.40
2022-12-29T22:29:55.448Z,41.05
2022-12-29T22:32:22.563Z,43.40
2022-12-29T22:34:49.994Z,40.13
2022-12-29T22:37:17.268Z,40.35
2022-12-29T22:39:44.363Z,42.25
2022-12-29T22:42:11.485Z,43.92
2022-12-29T22:44:38.585Z,41.50
2022-12-29T22:47:05.675Z,43.03
2022-12-29T22:49:32.861Z,43.88
2022-12-29T22:51:59.985Z,40.75
2022-12-29T22:54:27.146Z,45.45
2022-12-29T22:56:54.314Z,44.28
2022-12-29T22:59:21.420Z,46.97
2022-12-29T23:01:48.629Z,46.70
2022-12-29T23:04:59.202Z,47.00
2022-12-29T23:07:04.750Z,46.50
2022-12-29T23:09:32.286Z,46.38
2022-12-29T23:11:59.384Z,46.35
2022-12-29T23:14:26.507Z,45.20
2022-12-29T23:16:54.059Z,47.40
2022-12-29T23:19:21.169Z,44.58
2022-12-29T23:21:48.306Z,49.58
2022-12-29T23:24:15.392Z,47.13
2022-12-29T23:26:46.865Z,50.35
2022-12-29T23:29:17.572Z,48.53
2022-12-29T23:31:45.425Z,48.15
2022-12-29T23:34:14.773Z,53.30
2022-12-29T23:36:41.909Z,52.88
2022-12-29T23:39:09.845Z,52.58
2022-12-29T23:41:37.183Z,51.97
2022-12-29T23:44:04.390Z,47.08
2022-12-29T23:46:31.603Z,55.50
2022-12-29T23:48:59.531Z,56.08
2022-12-29T23:51:26.718Z,56.50
2022-12-29T23:53:53.835Z,54.42
2022-12-29T23:56:23.043Z,53.95
2022-12-29T23:58:50.745Z,56.95
